createdAt,value
2024-04-05T00:02:59.821Z,49.7
2024-04-05T00:08:35.545Z,49.1
2024-04-05T00:14:10.543Z,48.1
2024-04-05T00:19:45.552Z,48
2024-04-05T00:25:20.651Z,47.2
2024-04-05T00:30:55.714Z,46.5
2024-04-05T00:36:30.970Z,45.7
2024-04-05T00:42:06.108Z,44.8
2024-04-05T00:47:41.353Z,45.1
2024-04-05T00:53:16.762Z,43.7
2024-04-05T00:58:51.679Z,44
2024-04-05T01:04:27.026Z,43.9
2024-04-05T01:10:02.274Z,43
2024-04-05T01:15:37.312Z,42.7
2024-04-05T01:21:12.492Z,41.5
2024-04-05T01:26:47.563Z,41.5
2024-04-05T01:32:22.791Z,49.2
2024-04-05T01:37:58.272Z,50.9
2024-04-05T01:43:33.420Z,49.8
2024-04-05T01:49:09.139Z,48.6
2024-04-05T01:54:44.363Z,47.1
2024-04-05T02:00:19.687Z,49.2
2024-04-05T02:05:54.536Z,48.7
2024-04-05T02:11:29.932Z,51.3
2024-04-05T02:17:05.037Z,52
2024-04-05T02:22:40.273Z,49.4
2024-04-05T02:28:16.184Z,48.3
2024-04-05T02:33:51.459Z,47.9
2024-04-05T02:39:26.717Z,51.2
2024-04-05T02:45:01.762Z,51.1
2024-04-05T02:50:37.216Z,51.5
2024-04-05T02:56:12.403Z,53.6
2024-04-05T03:01:47.777Z,54.5
2024-04-05T03:07:23.209Z,52.5
2024-04-05T03:12:58.392Z,49.1
2024-04-05T03:18:33.184Z,49
2024-04-05T03:24:08.734Z,49.3
2024-04-05T03:29:43.593Z,47.9
2024-04-05T03:35:18.808Z,51
2024-04-05T03:40:54.080Z,53.5
2024-04-05T03:46:29.379Z,53.3
2024-04-05T03:52:04.286Z,53.6
2024-04-05T03:57:39.173Z,52.3
2024-04-05T04:03:14.137Z,50.4
2024-04-05T04:08:49.239Z,49.8
2024-04-05T04:14:24.413Z,47.8
2024-04-05T04:19:59.593Z,46.9
2024-04-05T04:25:34.854Z,48.6
2024-04-05T04:31:10.145Z,51.2
2024-04-05T04:36:45.382Z,50.9
2024-04-05T04:42:20.755Z,52.6
2024-04-05T04:47:56.221Z,53.3
2024-04-05T04:53:31.292Z,52.9
2024-04-05T04:59:06.372Z,52.2
2024-04-05T05:04:41.885Z,53.2
2024-04-05T05:10:17.411Z,54.4
2024-04-05T05:15:52.218Z,55.6
2024-04-05T05:21:28.278Z,53.9
2024-04-05T05:27:03.335Z,54.1
2024-04-05T05:32:38.671Z,54.3
2024-04-05T05:38:14.729Z,50.8
2024-04-05T05:43:50.280Z,51.1
2024-04-05T05:49:26.257Z,51
2024-04-05T05:55:01.712Z,48
2024-04-05T06:00:37.134Z,45.1
2024-04-05T06:06:12.371Z,48.7
2024-04-05T06:11:47.466Z,49.1
2024-04-05T06:17:22.659Z,49
2024-04-05T06:22:57.990Z,48.8
2024-04-05T06:28:40.005Z,53.6
2024-04-05T06:34:16.669Z,60.8
2024-04-05T06:39:51.757Z,56.9
2024-04-05T06:45:27.112Z,55.3
2024-04-05T06:51:03.075Z,49.4
2024-04-05T06:56:38.935Z,48.1
2024-04-05T07:02:14.235Z,59.8
2024-04-05T07:07:49.378Z,61.3
2024-04-05T07:13:24.645Z,63.1
2024-04-05T07:19:01.216Z,61.1
2024-04-05T07:24:38.682Z,62.2
2024-04-05T07:30:14.152Z,61.5
2024-04-05T07:35:49.608Z,63.6
2024-04-05T07:41:25.681Z,61.7
2024-04-05T07:47:00.973Z,62.7
2024-04-05T07:52:36.204Z,60.9
2024-04-05T07:58:11.279Z,57.6
2024-04-05T08:03:46.511Z,59.3
2024-04-05T08:09:22.202Z,57.3
2024-04-05T08:14:57.084Z,50.1
2024-04-05T08:20:32.402Z,43.6
2024-04-05T08:26:07.810Z,43.9
2024-04-05T08:31:42.837Z,40.2
2024-04-05T08:37:18.103Z,45.1
2024-04-05T08:42:53.796Z,42.5
2024-04-05T08:48:29.344Z,36.5
2024-04-05T08:54:04.727Z,39.6
2024-04-05T08:59:40.097Z,42.4
2024-04-05T09:05:15.074Z,41.3
2024-04-05T09:10:50.042Z,37.9
2024-04-05T09:16:25.808Z,38.3
2024-04-05T09:22:01.202Z,39.8
2024-04-05T09:27:36.438Z,40.1
2024-04-05T09:33:11.818Z,39.3
2024-04-05T09:38:46.787Z,36.4
2024-04-05T09:44:26.967Z,37
2024-04-05T09:50:02.925Z,32.5
2024-04-05T09:55:37.963Z,32.5
2024-04-05T10:01:13.185Z,30
2024-04-05T10:06:48.587Z,27.1
2024-04-05T10:12:24.375Z,24
2024-04-05T10:18:01.606Z,30.9
2024-04-05T10:23:37.505Z,28.8
2024-04-05T10:29:12.620Z,31.3
2024-04-05T10:34:48.155Z,28.6
2024-04-05T10:40:24.279Z,30.2
2024-04-05T10:45:59.646Z,30.9
2024-04-05T10:51:34.870Z,28.7
2024-04-05T10:57:10.799Z,26
2024-04-05T11:02:46.888Z,25.5
2024-04-05T11:08:21.957Z,29.6
2024-04-05T11:13:57.493Z,22.1
2024-04-05T11:19:32.875Z,23.3
2024-04-05T11:25:07.868Z,24.7
2024-04-05T11:30:43.649Z,25
2024-04-05T11:36:18.729Z,19.4
2024-04-05T11:41:54.320Z,24.9
2024-04-05T11:47:30.088Z,27.6
2024-04-05T11:53:06.020Z,21.4
2024-04-05T11:58:41.264Z,20.1
2024-04-05T12:04:16.840Z,25.4
2024-04-05T12:09:52.240Z,21.8
2024-04-05T12:15:27.713Z,22.1
2024-04-05T12:21:03.465Z,22.9
2024-04-05T12:26:39.060Z,25.5
2024-04-05T12:32:14.746Z,26.7
2024-04-05T12:37:50.388Z,25.5
2024-04-05T12:43:25.733Z,25.6
2024-04-05T12:49:00.973Z,21.4
2024-04-05T12:54:36.309Z,17.2
2024-04-05T13:00:11.580Z,20.4
2024-04-05T13:05:47.008Z,15.8
2024-04-05T13:11:22.491Z,19.7
2024-04-05T13:16:57.799Z,19.6
2024-04-05T13:22:33.598Z,22.2
2024-04-05T13:28:08.988Z,20.3
2024-04-05T13:33:44.043Z,20.8
2024-04-05T13:39:19.318Z,20.3
2024-04-05T13:44:54.738Z,20.8
2024-04-05T13:50:30.013Z,17.6
2024-04-05T13:56:05.245Z,18
2024-04-05T14:01:41.107Z,17.8
2024-04-05T14:07:16.224Z,18.3
2024-04-05T14:12:51.723Z,17
2024-04-05T14:18:27.537Z,19.7
2024-04-05T14:24:02.635Z,18
2024-04-05T14:29:37.527Z,18
2024-04-05T14:35:12.651Z,20
2024-04-05T14:40:48.240Z,19.3
2024-04-05T14:46:24.059Z,17.1
2024-04-05T14:51:59.363Z,18.8
2024-04-05T14:57:34.132Z,16.5
2024-04-05T15:03:09.142Z,17.7
2024-04-05T15:08:48.114Z,21
2024-04-05T15:14:23.421Z,18.2
2024-04-05T15:19:58.366Z,17.4
2024-04-05T15:25:33.375Z,16.5
2024-04-05T15:31:08.603Z,17.6
2024-04-05T15:36:43.562Z,16.8
2024-04-05T15:42:19.243Z,16
2024-04-05T15:47:54.207Z,16
2024-04-05T15:53:29.352Z,14.8
2024-04-05T15:59:05.141Z,17
2024-04-05T16:04:40.725Z,16.6
2024-04-05T16:10:15.859Z,17.6
2024-04-05T16:15:51.412Z,16.5
2024-04-05T16:21:26.697Z,17.9
2024-04-05T16:27:01.737Z,17.3
2024-04-05T16:32:36.938Z,17.8
2024-04-05T16:38:15.193Z,15.7
2024-04-05T16:43:51.340Z,16.5
2024-04-05T16:49:26.732Z,20.7
2024-04-05T16:55:02.796Z,25
2024-04-05T17:00:38.084Z,25
2024-04-05T17:06:14.624Z,33.4
2024-04-05T17:11:50.257Z,38.7
2024-04-05T17:17:25.381Z,41
2024-04-05T17:23:01.054Z,42
2024-04-05T17:28:36.489Z,43.6
2024-04-05T17:34:11.448Z,44.6
2024-04-05T17:39:46.623Z,46.6
2024-04-05T17:45:21.706Z,47.3
2024-04-05T17:50:56.664Z,48.3
2024-04-05T17:56:31.722Z,49.5
2024-04-05T18:02:07.130Z,49.5
2024-04-05T18:07:42.404Z,48.8
2024-04-05T18:13:17.826Z,42.2
2024-04-05T18:18:52.523Z,48.9
2024-04-05T18:24:27.779Z,46.5
2024-04-05T18:30:03.889Z,46.7
2024-04-05T18:35:39.143Z,47.4
2024-04-05T18:41:15.284Z,47.2
2024-04-05T18:46:51.871Z,47.3
2024-04-05T18:52:27.068Z,49
2024-04-05T18:58:02.235Z,48.6
2024-04-05T19:03:37.245Z,51.3
2024-04-05T19:09:12.311Z,51.2
2024-04-05T19:14:47.292Z,53.7
2024-04-05T19:20:22.491Z,53.5
2024-04-05T19:25:57.404Z,54
2024-04-05T19:31:32.437Z,54.5
2024-04-05T19:37:09.312Z,52.4
2024-04-05T19:42:44.233Z,54.3
2024-04-05T19:48:18.949Z,52.2
2024-04-05T19:53:54.248Z,53
2024-04-05T19:59:29.013Z,51.8
2024-04-05T20:05:04.211Z,50.6
2024-04-05T20:10:39.506Z,50.2
2024-04-05T20:16:14.787Z,50.6
2024-04-05T20:21:50.236Z,50.5
2024-04-05T20:27:26.321Z,50.3
2024-04-05T20:33:01.006Z,50.3
2024-04-05T20:38:36.283Z,50
2024-04-05T20:44:11.255Z,49.2
2024-04-05T20:49:47.535Z,46.7
2024-04-05T20:55:22.836Z,44.3
2024-04-05T21:00:58.075Z,41.6
2024-04-05T21:06:33.100Z,40.3
2024-04-05T21:12:08.271Z,37.9
2024-04-05T21:17:43.214Z,36.7
2024-04-05T21:23:18.517Z,35.2
2024-04-05T21:28:54.484Z,33.8
2024-04-05T21:34:29.740Z,32.7
2024-04-05T21:40:04.980Z,32.2
2024-04-05T21:45:40.483Z,32.3
2024-04-05T21:51:19.096Z,32.1
2024-04-05T21:56:54.770Z,32.1
2024-04-05T22:02:30.255Z,32.1
2024-04-05T22:08:05.617Z,31.7
2024-04-05T22:13:40.873Z,31.7
2024-04-05T22:19:15.942Z,31.8
2024-04-05T22:24:51.554Z,31.7
2024-04-05T22:30:26.494Z,32
2024-04-05T22:36:01.846Z,31.7
2024-04-05T22:41:37.186Z,31.2
2024-04-05T22:47:12.359Z,32
2024-04-05T22:52:47.893Z,32.3
2024-04-05T22:58:22.952Z,32.1
2024-04-05T23:03:57.860Z,31.7
2024-04-05T23:09:33.150Z,31.6
2024-04-05T23:15:08.466Z,30.9
2024-04-05T23:20:43.715Z,30.8
2024-04-05T23:26:18.930Z,30
2024-04-05T23:31:54.544Z,29.7
2024-04-05T23:37:29.858Z,29
2024-04-05T23:43:04.765Z,29.2
2024-04-05T23:48:39.847Z,29.1
2024-04-05T23:54:14.756Z,29
2024-04-05T23:59:50.166Z,29.3
